Time;durP1;ratioP1;P1;durP2;ratioP2;P2;SDS_P1;SDS_P2;PMS_P1;PMS_P2;Temp;Humidity;BMP_temperature;BMP_pressure;BME280_temperature;BME280_humidity;BME280_pressure;Samples;Min_cycle;Max_cycle;Signal;HPM_P1;HPM_P2
2021/09/06 00:02:05;;;;;;;4.30;3.90;;;;;;;31.73;19.13;94929.53;5075663;28;20045;-56
2021/09/06 00:04:33;;;;;;;4.50;3.58;;;;;;;32.04;18.73;94918.69;5057538;28;20041;-54
2021/09/06 00:07:01;;;;;;;4.78;3.90;;;;;;;31.62;18.96;94926.22;5056562;28;20048;-52
2021/09/06 00:09:28;;;;;;;4.72;4.00;;;;;;;31.89;19.02;94924.28;5057404;28;20056;-53
2021/09/06 00:11:55;;;;;;;5.47;3.90;;;;;;;31.92;18.89;94924.66;5057878;28;20048;-53
2021/09/06 00:14:22;;;;;;;7.18;3.75;;;;;;;31.65;19.16;94928.09;5077250;28;20048;-54
2021/09/06 00:16:49;;;;;;;4.70;3.88;;;;;;;31.71;19.03;94918.38;5076701;28;20060;-53
2021/09/06 00:19:17;;;;;;;4.95;4.45;;;;;;;31.64;19.05;94934.69;5077479;28;20040;-53
2021/09/06 00:21:44;;;;;;;6.18;4.07;;;;;;;31.55;19.27;94926.31;5077533;28;20057;-54
2021/09/06 00:24:11;;;;;;;4.43;3.88;;;;;;;31.97;19.10;94922.25;5058764;28;20045;-52
2021/09/06 00:26:38;;;;;;;4.90;3.90;;;;;;;31.70;19.39;94924.94;5056980;28;20053;-52
2021/09/06 00:29:12;;;;;;;4.65;3.80;;;;;;;31.71;19.13;94929.19;5056112;28;20045;-52
2021/09/06 00:31:39;;;;;;;4.65;3.97;;;;;;;31.94;19.16;94930.41;5057098;28;20130;-53
2021/09/06 00:34:06;;;;;;;6.85;3.97;;;;;;;31.85;19.32;94933.63;5059757;28;20045;-52
2021/09/06 00:36:35;;;;;;;4.88;3.97;;;;;;;31.90;18.93;94936.63;5040005;28;20436;-52
2021/09/06 00:39:02;;;;;;;4.40;3.60;;;;;;;31.74;19.39;94933.78;5038452;28;20052;-52
2021/09/06 00:41:29;;;;;;;4.63;3.50;;;;;;;31.75;19.21;94942.66;5039424;28;20059;-51
2021/09/06 00:43:57;;;;;;;5.63;3.75;;;;;;;31.64;19.72;94940.09;5038828;28;20052;-52
2021/09/06 00:46:24;;;;;;;4.45;3.60;;;;;;;31.76;19.22;94953.06;5039407;28;20451;-53
2021/09/06 00:48:51;;;;;;;4.72;3.78;;;;;;;31.69;19.36;94942.31;5039355;28;20474;-52
2021/09/06 00:51:20;;;;;;;5.35;4.13;;;;;;;31.73;19.52;94953.88;5056893;28;20064;-52
2021/09/06 00:53:47;;;;;;;4.25;3.85;;;;;;;31.61;19.86;94962.50;5056410;28;20379;-52
2021/09/06 00:56:16;;;;;;;7.85;4.25;;;;;;;31.72;19.46;94957.75;5022486;28;20060;-53
2021/09/06 00:58:45;;;;;;;4.80;3.60;;;;;;;31.58;19.86;94955.22;5056951;28;20430;-51
2021/09/06 01:01:12;;;;;;;5.28;3.95;;;;;;;31.47;19.80;94963.44;5070031;28;20053;-52
2021/09/06 01:03:40;;;;;;;6.40;3.95;;;;;;;31.68;20.05;94957.00;5063427;28;20049;-51
2021/09/06 01:06:24;;;;;;;4.75;4.15;;;;;;;31.76;19.80;94966.59;5038987;28;20044;-50
2021/09/06 01:09:09;;;;;;;5.65;3.90;;;;;;;31.68;19.66;94961.66;5038779;28;20367;-53
2021/09/06 01:11:52;;;;;;;4.60;4.13;;;;;;;31.32;20.31;94966.75;5039005;28;20052;-52
2021/09/06 01:14:30;;;;;;;6.03;4.10;;;;;;;31.59;19.86;94967.56;5038441;28;20052;-54
2021/09/06 01:16:58;;;;;;;4.43;4.00;;;;;;;31.54;20.23;94968.03;5056532;28;20587;-52
2021/09/06 01:19:25;;;;;;;4.57;3.78;;;;;;;31.68;20.06;94969.75;5022185;28;20476;-53
2021/09/06 01:21:56;;;;;;;5.43;3.85;;;;;;;31.48;20.20;94975.03;5038969;28;20535;-50
2021/09/06 01:24:26;;;;;;;4.50;4.10;;;;;;;31.39;20.38;94966.66;5055901;28;20057;-53
2021/09/06 01:26:56;;;;;;;4.50;4.10;;;;;;;31.55;20.20;94956.81;5039124;28;20087;-51
2021/09/06 01:29:28;;;;;;;5.00;3.92;;;;;;;31.48;20.42;94964.97;5038494;28;20439;-52
2021/09/06 01:31:59;;;;;;;4.80;4.30;;;;;;;31.48;20.61;94956.88;5055340;28;20061;-51
2021/09/06 01:34:27;;;;;;;4.97;4.30;;;;;;;31.56;20.61;94960.28;5038414;28;20107;-51
2021/09/06 01:36:58;;;;;;;5.85;4.40;;;;;;;31.43;20.96;94961.97;5038813;28;20049;-51
2021/09/06 01:39:25;;;;;;;4.63;3.92;;;;;;;31.50;20.60;94957.25;5037410;28;20056;-51
2021/09/06 01:41:53;;;;;;;6.03;4.18;;;;;;;31.44;20.94;94952.69;5038709;28;20048;-57
2021/09/06 01:44:20;;;;;;;4.68;4.20;;;;;;;31.35;21.33;94955.91;5055853;28;20080;-54
2021/09/06 01:46:48;;;;;;;4.72;4.32;;;;;;;31.41;20.93;94958.91;5038497;28;20044;-53
2021/09/06 01:49:16;;;;;;;6.13;4.10;;;;;;;31.51;20.80;94952.63;5038309;28;20056;-54
2021/09/06 01:51:46;;;;;;;6.05;4.75;;;;;;;31.42;20.83;94963.16;5038418;28;20052;-52
2021/09/06 01:54:14;;;;;;;4.90;4.40;;;;;;;31.35;21.28;94960.53;5070916;28;20075;-54
2021/09/06 01:56:41;;;;;;;6.78;4.65;;;;;;;31.40;20.94;94962.78;5058126;28;20051;-56
2021/09/06 01:59:11;;;;;;;5.38;4.50;;;;;;;31.41;21.19;94953.50;5057289;28;20048;-54
2021/09/06 02:01:38;;;;;;;5.22;4.50;;;;;;;31.58;20.83;94968.72;5057211;28;20056;-54
2021/09/06 02:04:05;;;;;;;5.43;4.53;;;;;;;31.52;20.93;94967.66;5043139;28;20052;-54
2021/09/06 02:06:35;;;;;;;5.07;4.57;;;;;;;31.27;21.58;94963.34;5037968;28;20044;-52
2021/09/06 02:09:05;;;;;;;5.80;4.82;;;;;;;31.39;21.35;94972.06;5055369;28;20053;-55
2021/09/06 02:11:35;;;;;;;4.95;4.43;;;;;;;31.03;21.70;94967.06;5037782;28;20057;-52
2021/09/06 02:14:04;;;;;;;7.55;4.30;;;;;;;30.99;21.52;94966.34;5037392;28;20040;-53
2021/09/06 02:16:33;;;;;;;8.07;4.43;;;;;;;30.92;21.47;94971.81;5037985;28;20071;-51
2021/09/06 02:19:02;;;;;;;5.30;4.28;;;;;;;30.87;21.17;94966.84;5037727;28;20444;-53
2021/09/06 02:21:30;;;;;;;4.60;4.20;;;;;;;30.73;21.21;94975.09;5037618;28;20059;-53
2021/09/06 02:24:02;;;;;;;5.47;4.32;;;;;;;30.54;21.58;94969.06;5037088;28;20060;-51
2021/09/06 02:26:33;;;;;;;5.68;4.10;;;;;;;30.62;21.37;94965.16;5037943;28;20065;-51
2021/09/06 02:29:00;;;;;;;5.38;4.03;;;;;;;30.57;21.44;94976.38;5037491;28;20055;-52
2021/09/06 02:31:30;;;;;;;4.60;4.20;;;;;;;30.89;21.14;94967.22;5057118;28;20057;-50
2021/09/06 02:34:15;;;;;;;5.80;4.78;;;;;;;30.76;21.43;94963.50;5054686;28;20471;-50
2021/09/06 02:36:45;;;;;;;6.20;4.30;;;;;;;30.83;21.50;94966.13;5037573;28;20371;-49
2021/09/06 02:39:12;;;;;;;4.95;4.45;;;;;;;30.66;21.58;94963.19;5037268;28;20056;-52
2021/09/06 02:41:39;;;;;;;5.82;5.13;;;;;;;30.81;21.68;94961.13;5037205;28;20060;-52
2021/09/06 02:44:07;;;;;;;5.20;4.70;;;;;;;30.74;21.72;94965.84;5036064;28;20045;-52
2021/09/06 02:46:34;;;;;;;5.32;4.82;;;;;;;30.85;21.91;94974.59;5037332;28;20051;-51
2021/09/06 02:49:01;;;;;;;5.20;4.70;;;;;;;31.11;21.73;94975.84;5054759;28;20075;-52
2021/09/06 02:51:28;;;;;;;5.90;5.40;;;;;;;30.80;22.10;94985.81;5054703;28;20475;-51
2021/09/06 02:53:56;;;;;;;6.00;5.40;;;;;;;30.97;22.22;94980.25;5035771;28;20045;-53
2021/09/06 02:56:23;;;;;;;5.90;5.20;;;;;;;31.18;21.90;94968.44;5037003;28;20056;-52
2021/09/06 02:58:50;;;;;;;7.15;5.68;;;;;;;31.23;21.63;94973.44;5054707;28;20112;-51
2021/09/06 03:01:17;;;;;;;5.43;4.93;;;;;;;30.93;21.94;94974.09;5054193;28;20312;-52
2021/09/06 03:03:45;;;;;;;5.68;5.03;;;;;;;31.13;21.88;94968.09;5036859;28;20048;-52
2021/09/06 03:06:14;;;;;;;6.63;4.60;;;;;;;31.08;21.75;94982.06;5036774;28;20455;-52
2021/09/06 03:08:42;;;;;;;5.35;4.60;;;;;;;30.86;21.89;94981.50;5036707;28;20518;-54
2021/09/06 03:11:09;;;;;;;6.00;5.32;;;;;;;31.03;21.65;94985.97;5054571;28;20064;-53
2021/09/06 03:13:38;;;;;;;7.30;5.15;;;;;;;30.87;21.61;94983.03;5054231;28;20476;-52
2021/09/06 03:16:06;;;;;;;5.65;5.03;;;;;;;30.93;21.93;94981.44;5033779;28;20049;-51
2021/09/06 03:18:33;;;;;;;5.57;4.78;;;;;;;30.82;21.90;94983.50;5053383;28;20064;-51
2021/09/06 03:21:26;;;;;;;6.20;4.80;;;;;;;30.68;22.31;94990.53;5049660;28;20040;-52
2021/09/06 03:23:55;;;;;;;5.35;4.85;;;;;;;30.76;21.79;94988.56;5036614;28;20049;-53
2021/09/06 03:26:25;;;;;;;5.57;5.03;;;;;;;30.82;22.15;94978.84;5036689;28;20075;-52
2021/09/06 03:28:52;;;;;;;7.35;5.10;;;;;;;30.65;22.17;94988.66;5036664;28;20375;-52
2021/09/06 03:31:21;;;;;;;5.60;5.10;;;;;;;30.58;22.45;94991.38;5051064;28;20482;-52
2021/09/06 03:33:48;;;;;;;8.57;5.80;;;;;;;30.59;22.07;94989.44;5073949;28;20105;-55
2021/09/06 03:36:16;;;;;;;6.15;5.20;;;;;;;30.94;21.97;94986.44;5056092;28;20044;-56
2021/09/06 03:38:43;;;;;;;5.40;4.82;;;;;;;30.68;22.38;94990.53;5056664;28;20455;-52
2021/09/06 03:41:10;;;;;;;6.22;5.28;;;;;;;30.69;22.18;95002.09;5055904;28;20056;-52
2021/09/06 03:43:40;;;;;;;6.07;4.90;;;;;;;30.71;22.44;95007.09;5056157;28;20060;-52
2021/09/06 03:46:07;;;;;;;6.47;5.55;;;;;;;30.73;22.25;95007.50;5056369;28;20044;-53
2021/09/06 03:48:36;;;;;;;5.88;5.28;;;;;;;30.57;22.63;95010.66;5056432;28;20060;-50
2021/09/06 03:51:07;;;;;;;6.18;5.07;;;;;;;30.59;22.51;95019.91;5074249;28;20375;-53
2021/09/06 03:53:35;;;;;;;5.68;5.15;;;;;;;30.59;22.67;95016.44;5056166;28;20063;-52
2021/09/06 03:56:02;;;;;;;7.45;5.25;;;;;;;30.38;22.88;95022.75;5056658;28;20044;-56
2021/09/06 03:58:36;;;;;;;10.30;5.45;;;;;;;30.62;23.06;95019.13;5056732;28;20056;-52
2021/09/06 04:01:03;;;;;;;6.15;5.50;;;;;;;30.55;23.04;95029.19;5056045;28;20056;-53
2021/09/06 04:03:31;;;;;;;6.05;5.45;;;;;;;30.78;22.86;95034.78;5050597;28;20060;-56
2021/09/06 04:06:01;;;;;;;5.65;5.13;;;;;;;30.63;23.10;95036.06;5036334;28;20337;-52
2021/09/06 04:08:28;;;;;;;6.45;5.78;;;;;;;30.58;23.25;95026.47;5020229;28;20048;-52
2021/09/06 04:10:57;;;;;;;6.53;5.78;;;;;;;30.52;23.29;95025.34;5035524;28;20049;-51
2021/09/06 04:13:29;;;;;;;6.55;5.70;;;;;;;30.59;23.40;95033.38;5053170;28;20056;-53
2021/09/06 04:15:59;;;;;;;6.97;5.73;;;;;;;30.51;23.36;95033.84;5035678;28;20056;-54
2021/09/06 04:18:29;;;;;;;6.32;5.72;;;;;;;30.63;23.29;95033.38;5036429;28;20041;-50
2021/09/06 04:21:00;;;;;;;7.75;5.72;;;;;;;30.56;23.52;95042.28;5035424;28;20056;-50
2021/09/06 04:23:27;;;;;;;7.63;5.53;;;;;;;30.60;23.68;95036.84;5038570;28;20047;-50
2021/09/06 04:26:00;;;;;;;6.85;5.43;;;;;;;30.62;23.54;95040.72;5038828;28;20049;-51
2021/09/06 04:28:29;;;;;;;6.63;6.00;;;;;;;30.73;23.60;95039.88;5039889;28;20146;-50
2021/09/06 04:30:57;;;;;;;7.55;5.68;;;;;;;30.55;23.74;95043.44;5051341;28;20052;-51
2021/09/06 04:33:30;;;;;;;6.60;5.82;;;;;;;30.63;23.94;95047.63;5059660;28;20048;-52
2021/09/06 04:35:58;;;;;;;7.15;5.80;;;;;;;30.78;23.64;95050.22;5059581;28;20371;-52
2021/09/06 04:38:29;;;;;;;8.18;5.63;;;;;;;30.64;23.74;95048.41;5059533;28;20052;-57
2021/09/06 04:40:57;;;;;;;6.40;5.78;;;;;;;30.74;23.69;95057.59;5059364;28;20040;-53
2021/09/06 04:43:24;;;;;;;6.78;6.07;;;;;;;30.94;23.37;95058.53;5059413;28;20048;-52
2021/09/06 04:45:52;;;;;;;8.07;6.40;;;;;;;30.99;23.63;95060.81;5075971;28;20055;-52
2021/09/06 04:48:19;;;;;;;9.50;6.45;;;;;;;30.82;23.83;95061.75;5043754;28;20052;-53
2021/09/06 04:50:46;;;;;;;7.13;6.13;;;;;;;30.65;24.09;95061.50;5039031;28;20052;-52
2021/09/06 04:53:14;;;;;;;8.82;6.70;;;;;;;30.85;23.92;95058.25;5039508;28;20056;-52
2021/09/06 04:55:41;;;;;;;7.65;6.95;;;;;;;30.92;23.87;95071.66;5038956;28;20395;-55
2021/09/06 04:58:08;;;;;;;8.70;6.57;;;;;;;30.89;24.09;95073.25;5039362;28;20060;-53
2021/09/06 05:00:36;;;;;;;7.30;6.60;;;;;;;30.96;23.74;95077.78;5044807;28;20057;-52
2021/09/06 05:03:03;;;;;;;7.72;6.88;;;;;;;30.87;23.93;95077.50;5038973;28;20060;-53
2021/09/06 05:05:30;;;;;;;8.65;6.13;;;;;;;31.39;23.41;95075.47;5056287;28;20052;-53
2021/09/06 05:07:57;;;;;;;7.53;6.57;;;;;;;31.24;23.34;95079.50;5039146;28;20451;-54
2021/09/06 05:10:26;;;;;;;7.53;6.05;;;;;;;31.37;23.47;95087.84;5038625;28;20475;-52
2021/09/06 05:12:53;;;;;;;8.95;6.57;;;;;;;31.55;23.24;95085.72;5039046;28;20056;-53
2021/09/06 05:15:21;;;;;;;7.22;6.45;;;;;;;31.46;23.18;95083.50;5038698;28;20049;-52
2021/09/06 05:17:49;;;;;;;7.00;6.22;;;;;;;31.44;23.26;95087.75;5038979;28;20048;-54
2021/09/06 05:20:17;;;;;;;8.05;6.95;;;;;;;31.45;23.47;95081.97;5056483;28;20440;-53
2021/09/06 05:22:44;;;;;;;7.07;6.38;;;;;;;31.64;23.02;95086.00;5056230;28;20052;-54
2021/09/06 05:25:12;;;;;;;9.35;7.00;;;;;;;31.70;23.08;95095.19;5038658;28;20057;-55
2021/09/06 05:27:39;;;;;;;9.85;6.60;;;;;;;31.91;23.16;95094.19;5038760;28;20053;-54
2021/09/06 05:30:07;;;;;;;8.18;6.10;;;;;;;32.07;23.11;95104.44;5055545;28;20059;-53
2021/09/06 05:32:37;;;;;;;8.30;6.40;;;;;;;32.06;23.40;95094.78;5038462;28;20079;-53
2021/09/06 05:35:08;;;;;;;7.55;6.60;;;;;;;32.31;22.60;95095.22;5037670;28;20056;-55
2021/09/06 05:37:36;;;;;;;8.82;6.60;;;;;;;32.23;22.58;95091.03;5038704;28;20471;-54
2021/09/06 05:40:04;;;;;;;7.53;6.72;;;;;;;32.17;22.64;95095.38;5038690;28;20052;-52
2021/09/06 05:42:33;;;;;;;7.78;6.18;;;;;;;32.07;23.05;95099.00;5038186;28;20044;-55
2021/09/06 05:45:00;;;;;;;8.23;6.15;;;;;;;32.17;22.89;95103.50;5038167;28;20060;-53
2021/09/06 05:47:33;;;;;;;6.90;6.20;;;;;;;32.32;22.47;95096.75;5038278;28;20470;-54
2021/09/06 05:50:04;;;;;;;7.68;5.95;;;;;;;32.55;22.50;95097.97;5038113;28;20052;-53
2021/09/06 05:52:38;;;;;;;8.00;6.40;;;;;;;32.97;22.02;95100.00;5038179;28;20048;-56
2021/09/06 05:55:05;;;;;;;6.45;5.60;;;;;;;33.00;22.19;95101.13;5037541;28;20498;-55
2021/09/06 05:57:32;;;;;;;7.78;6.35;;;;;;;33.10;21.85;95092.06;5055606;28;20057;-55
2021/09/06 06:00:00;;;;;;;8.07;6.03;;;;;;;33.08;22.23;95102.56;5051778;28;20068;-53
2021/09/06 06:02:31;;;;;;;9.00;6.15;;;;;;;33.07;21.86;95101.78;5055358;28;20064;-53
2021/09/06 06:04:59;;;;;;;7.85;6.05;;;;;;;33.08;22.16;95097.91;5037733;28;20075;-56
2021/09/06 06:07:26;;;;;;;7.30;5.90;;;;;;;33.85;21.64;95106.97;5037242;28;20052;-54
2021/09/06 06:09:57;;;;;;;6.90;6.18;;;;;;;33.50;21.81;95106.44;5037782;28;20357;-54
2021/09/06 06:12:28;;;;;;;6.63;6.03;;;;;;;33.96;21.26;95093.97;5055193;28;20049;-53
2021/09/06 06:14:56;;;;;;;6.50;5.90;;;;;;;34.08;21.06;95093.28;5054281;28;20386;-55
2021/09/06 06:17:24;;;;;;;6.85;6.13;;;;;;;34.20;20.94;95098.09;5037884;28;20379;-55
2021/09/06 06:19:51;;;;;;;7.50;5.45;;;;;;;34.38;20.76;95092.31;5055324;28;20041;-55
2021/09/06 06:22:27;;;;;;;6.72;5.90;;;;;;;34.28;20.92;95096.72;5037520;28;20059;-53
2021/09/06 06:25:13;;;;;;;7.45;5.65;;;;;;;34.82;20.61;95088.13;5054909;28;20056;-58
2021/09/06 06:27:45;;;;;;;6.43;5.82;;;;;;;34.61;20.44;95096.78;5036802;28;20052;-54
2021/09/06 06:30:14;;;;;;;6.10;5.50;;;;;;;34.96;20.15;95091.72;5036864;28;20053;-56
2021/09/06 06:32:42;;;;;;;7.95;6.03;;;;;;;35.00;20.08;95086.97;5037360;28;20049;-60
2021/09/06 06:35:33;;;;;;;6.88;5.70;;;;;;;34.94;19.99;95100.31;5015142;28;20049;-58
2021/09/06 06:38:01;;;;;;;6.82;6.20;;;;;;;35.26;19.77;95104.91;5037582;28;20053;-54
2021/09/06 06:40:29;;;;;;;6.82;5.47;;;;;;;35.35;19.66;95099.66;5036494;28;20051;-56
2021/09/06 06:43:00;;;;;;;8.63;5.50;;;;;;;35.42;19.79;95113.06;5056547;28;20059;-55
2021/09/06 06:45:27;;;;;;;6.75;6.05;;;;;;;35.79;19.56;95108.19;5056098;28;20052;-58
2021/09/06 06:47:54;;;;;;;5.97;5.38;;;;;;;35.43;19.53;95114.59;5057356;28;20085;-55
2021/09/06 06:50:24;;;;;;;7.70;5.65;;;;;;;35.16;19.80;95117.59;5057198;28;20055;-59
2021/09/06 06:52:54;;;;;;;7.18;5.80;;;;;;;35.59;19.34;95110.28;5056891;28;20045;-57
2021/09/06 06:55:23;;;;;;;9.07;5.93;;;;;;;35.28;19.38;95113.41;5056842;28;20059;-52
2021/09/06 06:57:50;;;;;;;7.40;5.93;;;;;;;35.12;19.51;95116.91;5040773;28;20048;-53
2021/09/06 07:00:18;;;;;;;7.55;5.38;;;;;;;35.11;19.52;95125.47;5056131;28;20447;-52
2021/09/06 07:02:46;;;;;;;7.45;5.80;;;;;;;34.87;20.05;95122.97;5040144;28;20056;-52
2021/09/06 07:05:14;;;;;;;6.50;5.13;;;;;;;35.48;19.20;95133.09;5036861;28;20440;-56
2021/09/06 07:07:46;;;;;;;6.57;5.60;;;;;;;35.69;19.08;95141.88;5037131;28;20059;-55
2021/09/06 07:10:13;;;;;;;6.85;5.10;;;;;;;35.37;19.20;95138.03;5054291;28;20048;-53
2021/09/06 07:12:40;;;;;;;5.97;5.47;;;;;;;35.80;18.74;95136.91;5036764;28;20056;-52
2021/09/06 07:15:09;;;;;;;5.97;5.38;;;;;;;35.83;18.61;95136.06;5036251;28;20047;-53
2021/09/06 07:17:37;;;;;;;7.53;6.00;;;;;;;36.06;18.50;95133.06;5036606;28;20056;-54
2021/09/06 07:20:05;;;;;;;6.50;5.57;;;;;;;35.69;18.96;95144.59;5036914;28;20045;-55
2021/09/06 07:22:32;;;;;;;6.15;5.55;;;;;;;36.74;17.94;95136.53;5036609;28;20060;-55
2021/09/06 07:24:59;;;;;;;7.03;5.50;;;;;;;36.98;17.99;95139.69;5036809;28;20336;-56
2021/09/06 07:27:27;;;;;;;6.53;5.70;;;;;;;37.14;17.44;95153.16;5053500;28;20045;-54
2021/09/06 07:29:54;;;;;;;7.63;6.00;;;;;;;36.77;18.09;95146.53;5039774;28;20055;-54
2021/09/06 07:32:22;;;;;;;6.13;5.53;;;;;;;37.34;17.85;95140.03;5044223;28;20049;-55
2021/09/06 07:34:49;;;;;;;6.78;5.65;;;;;;;37.69;17.29;95145.47;5054747;28;20451;-55
2021/09/06 07:37:18;;;;;;;7.00;5.90;;;;;;;37.81;16.63;95147.41;5056053;28;20055;-54
2021/09/06 07:39:47;;;;;;;6.03;5.50;;;;;;;37.96;16.98;95156.59;5056795;28;20045;-55
2021/09/06 07:42:15;;;;;;;5.53;4.90;;;;;;;38.24;16.40;95145.88;5056955;28;20332;-53
2021/09/06 07:44:43;;;;;;;5.65;5.07;;;;;;;37.71;16.75;95151.25;5056664;28;20044;-54
2021/09/06 07:47:11;;;;;;;6.00;5.18;;;;;;;38.03;16.24;95157.56;5056855;28;20056;-51
2021/09/06 07:49:39;;;;;;;6.05;5.45;;;;;;;37.90;16.37;95155.66;5056260;28;20079;-54
2021/09/06 07:52:06;;;;;;;6.15;5.55;;;;;;;37.45;16.96;95161.47;5056581;28;20049;-52
2021/09/06 07:54:33;;;;;;;5.97;5.45;;;;;;;37.53;17.38;95156.56;5056241;28;20040;-52
2021/09/06 07:57:01;;;;;;;5.80;5.30;;;;;;;36.94;17.53;95155.34;5057401;28;20059;-53
2021/09/06 07:59:31;;;;;;;6.07;5.47;;;;;;;36.36;18.13;95155.56;5059603;28;20052;-54
2021/09/06 08:01:59;;;;;;;6.07;5.47;;;;;;;36.43;18.27;95160.78;5060354;28;20352;-53
2021/09/06 08:04:26;;;;;;;5.60;5.00;;;;;;;36.28;18.03;95165.88;5055941;28;20475;-53
2021/09/06 08:06:56;;;;;;;5.85;5.15;;;;;;;35.81;18.37;95162.91;5039974;28;20049;-53
2021/09/06 08:09:23;;;;;;;6.03;5.43;;;;;;;35.88;18.09;95161.97;5040001;28;20440;-53
2021/09/06 08:11:50;;;;;;;6.88;5.65;;;;;;;35.72;18.51;95168.22;5039733;28;20057;-53
2021/09/06 08:14:21;;;;;;;5.72;5.22;;;;;;;35.83;18.54;95155.09;5039947;28;20052;-54
2021/09/06 08:16:49;;;;;;;6.40;5.25;;;;;;;36.23;18.35;95158.25;5039874;28;20049;-53
2021/09/06 08:19:16;;;;;;;5.68;4.78;;;;;;;36.15;18.08;95157.69;5039778;28;20045;-52
2021/09/06 08:21:44;;;;;;;5.40;4.88;;;;;;;36.02;18.26;95156.91;5039927;28;20048;-52
2021/09/06 08:24:13;;;;;;;6.28;5.07;;;;;;;35.78;18.46;95150.94;5039798;28;20060;-54
2021/09/06 08:26:41;;;;;;;7.43;5.10;;;;;;;35.68;18.57;95151.22;5039697;28;20049;-54
2021/09/06 08:29:09;;;;;;;7.78;5.50;;;;;;;35.86;18.66;95150.75;5039889;28;20052;-52
2021/09/06 08:31:37;;;;;;;5.53;4.70;;;;;;;35.10;18.80;95151.88;5056611;28;20371;-53
2021/09/06 08:34:04;;;;;;;6.85;5.10;;;;;;;35.64;18.34;95151.31;5059594;28;20052;-53
2021/09/06 08:36:35;;;;;;;5.88;5.05;;;;;;;36.47;17.11;95145.13;5039426;28;20045;-56
2021/09/06 08:39:03;;;;;;;6.55;4.95;;;;;;;36.31;17.41;95147.94;5039457;28;20048;-51
2021/09/06 08:41:31;;;;;;;5.78;4.82;;;;;;;35.77;17.50;95154.84;5039580;28;20049;-56
2021/09/06 08:44:01;;;;;;;4.68;4.28;;;;;;;35.99;17.09;95149.59;5039643;28;20045;-54
2021/09/06 08:46:29;;;;;;;5.78;4.97;;;;;;;35.17;17.91;95151.72;5022055;28;20049;-55
2021/09/06 08:48:57;;;;;;;6.97;5.07;;;;;;;35.80;17.49;95147.78;5056007;28;20045;-53
2021/09/06 08:51:26;;;;;;;6.97;4.60;;;;;;;35.67;17.33;95155.91;5038805;28;20052;-54
2021/09/06 08:53:54;;;;;;;6.70;5.00;;;;;;;36.03;16.94;95142.09;5038843;28;20051;-55
2021/09/06 08:56:24;;;;;;;7.05;4.82;;;;;;;36.15;16.93;95146.78;5038481;28;20061;-51
2021/09/06 08:58:52;;;;;;;5.82;5.10;;;;;;;35.88;17.10;95154.56;5039257;28;20048;-60
2021/09/06 09:01:19;;;;;;;5.72;4.68;;;;;;;35.59;17.27;95151.84;5050092;28;20061;-52
2021/09/06 09:04:30;;;;;;;5.25;4.72;;;;;;;35.38;17.23;95164.03;5043514;28;20041;-57
2021/09/06 09:07:28;;;;;;;6.15;5.10;;;;;;;35.47;17.11;95156.03;5035977;28;20057;-54
2021/09/06 09:10:32;;;;;;;9.25;5.18;;;;;;;36.01;16.59;95158.09;5036789;28;20073;-54
2021/09/06 09:13:20;;;;;;;6.32;4.50;;;;;;;36.59;16.22;95140.88;5036391;28;20064;-51
2021/09/06 09:16:13;;;;;;;6.20;3.80;;;;;;;37.07;15.49;95147.94;5044684;28;20351;-52
2021/09/06 09:19:05;;;;;;;6.60;4.70;;;;;;;36.99;15.51;95157.56;5017654;28;20056;-54
2021/09/06 09:21:40;;;;;;;6.00;4.45;;;;;;;36.47;15.97;95161.47;5051936;28;20061;-53
2021/09/06 09:24:22;;;;;;;6.05;4.85;;;;;;;36.99;15.66;95152.88;5051678;28;20057;-53
2021/09/06 09:27:08;;;;;;;9.20;8.40;;;;;;;36.43;15.43;95161.56;5035640;28;20045;-53
2021/09/06 09:29:55;;;;;;;6.25;4.72;;;;;;;36.86;14.98;95148.63;5039251;28;20059;-53
2021/09/06 09:32:35;;;;;;;7.15;5.30;;;;;;;37.38;15.58;95150.81;5052054;28;20051;-53
2021/09/06 09:35:12;;;;;;;5.43;4.93;;;;;;;37.43;15.72;95155.72;5034966;28;20049;-52
2021/09/06 09:37:42;;;;;;;6.25;4.53;;;;;;;36.80;16.34;95150.38;5036088;28;20085;-53
2021/09/06 09:40:12;;;;;;;6.00;5.03;;;;;;;37.30;16.22;95150.31;5036067;28;20360;-54
2021/09/06 09:42:50;;;;;;;7.07;5.10;;;;;;;37.87;15.76;95145.63;5036091;28;20057;-54
2021/09/06 09:45:25;;;;;;;5.88;5.10;;;;;;;37.80;16.51;95147.84;5035870;28;20041;-53
2021/09/06 09:48:09;;;;;;;8.93;6.00;;;;;;;37.87;15.90;95153.81;5034314;28;20056;-52
2021/09/06 09:50:37;;;;;;;6.50;5.88;;;;;;;37.96;15.75;95150.38;5035885;28;20715;-52
2021/09/06 09:53:05;;;;;;;10.35;5.72;;;;;;;38.08;16.10;95156.97;5035653;28;20060;-55
2021/09/06 09:55:34;;;;;;;8.18;6.35;;;;;;;37.85;15.65;95144.56;5035328;28;20052;-56
2021/09/06 09:58:02;;;;;;;6.40;5.05;;;;;;;37.62;15.94;95145.72;5035775;28;20057;-54
2021/09/06 10:00:30;;;;;;;8.73;6.07;;;;;;;37.18;16.12;95142.88;5049548;28;20068;-52
2021/09/06 10:03:03;;;;;;;8.00;6.00;;;;;;;37.18;16.89;95142.88;5055353;28;20044;-56
2021/09/06 10:05:35;;;;;;;5.90;5.30;;;;;;;37.58;16.13;95148.56;5037730;28;20075;-52
2021/09/06 10:08:11;;;;;;;6.38;5.78;;;;;;;36.56;16.98;95153.41;5038469;28;20052;-54
2021/09/06 10:10:41;;;;;;;7.72;5.88;;;;;;;36.11;17.39;95154.31;5041461;28;20470;-59
2021/09/06 10:13:11;;;;;;;7.55;6.75;;;;;;;36.04;16.87;95145.59;5055344;28;20072;-57
2021/09/06 10:15:41;;;;;;;6.30;5.68;;;;;;;35.83;17.28;95146.94;5054363;28;20045;-53
2021/09/06 10:18:22;;;;;;;7.60;6.90;;;;;;;36.05;17.07;95142.44;5055314;28;20049;-59
2021/09/06 10:20:56;;;;;;;8.80;6.30;;;;;;;35.44;17.62;95137.88;5055039;28;20037;-57
2021/09/06 10:23:25;;;;;;;15.65;11.55;;;;;;;35.36;17.24;95141.94;5054970;28;20056;-58
2021/09/06 10:26:06;;;;;;;10.90;9.32;;;;;;;35.22;17.23;95153.16;5055047;28;20052;-52
2021/09/06 10:28:34;;;;;;;26.10;20.13;;;;;;;35.56;17.15;95154.66;5055226;28;20053;-54
2021/09/06 10:31:01;;;;;;;9.73;8.13;;;;;;;35.15;17.35;95150.63;5057553;28;20056;-56
2021/09/06 10:33:29;;;;;;;7.07;5.88;;;;;;;35.17;17.28;95145.53;5037343;28;20053;-57
2021/09/06 10:36:11;;;;;;;9.55;6.45;;;;;;;35.14;17.50;95149.09;5054817;28;20044;-58
2021/09/06 10:38:40;;;;;;;6.78;5.55;;;;;;;34.82;17.84;95156.03;5054976;28;20053;-58
2021/09/06 10:41:13;;;;;;;6.00;4.88;;;;;;;34.91;17.91;95145.38;5054959;28;20033;-53
2021/09/06 10:43:50;;;;;;;9.13;5.68;;;;;;;34.80;18.28;95141.34;5054602;28;20064;-58
2021/09/06 10:46:20;;;;;;;14.35;5.60;;;;;;;35.48;17.23;95141.25;5054698;28;20052;-60
2021/09/06 10:48:50;;;;;;;7.78;6.05;;;;;;;35.28;17.39;95135.16;5054856;28;20374;-59
2021/09/06 10:51:28;;;;;;;6.95;5.47;;;;;;;35.81;16.78;95127.53;5054916;28;20052;-56
2021/09/06 10:54:04;;;;;;;11.40;9.18;;;;;;;36.40;16.37;95123.56;5054433;28;20049;-58
2021/09/06 10:56:32;;;;;;;6.88;5.63;;;;;;;36.13;16.91;95121.97;5054559;28;20361;-56
2021/09/06 10:59:00;;;;;;;5.60;5.00;;;;;;;35.54;16.89;95131.38;5054622;28;20052;-57
2021/09/06 11:01:29;;;;;;;7.03;5.28;;;;;;;35.26;17.15;95132.09;5070921;28;20056;-55
2021/09/06 11:03:56;;;;;;;8.00;5.90;;;;;;;35.25;17.08;95136.00;5065869;28;20044;-56
2021/09/06 11:06:28;;;;;;;6.38;5.78;;;;;;;35.66;16.74;95121.75;5054702;28;20082;-58
2021/09/06 11:09:00;;;;;;;6.82;6.10;;;;;;;35.75;16.87;95129.28;5054120;28;20040;-58
2021/09/06 11:11:30;;;;;;;6.05;5.35;;;;;;;35.77;16.82;95126.88;5054308;28;20380;-59
2021/09/06 11:13:57;;;;;;;7.78;4.85;;;;;;;35.18;17.20;95141.63;5054377;28;20083;-55
2021/09/06 11:16:35;;;;;;;8.15;4.85;;;;;;;35.10;17.18;95134.81;5053361;28;20048;-57
2021/09/06 11:19:11;;;;;;;7.07;4.50;;;;;;;35.42;16.94;95129.38;5054361;28;20052;-56
2021/09/06 11:21:40;;;;;;;6.35;5.25;;;;;;;35.17;17.31;95130.00;5054331;28;20449;-56
2021/09/06 11:24:08;;;;;;;5.10;4.28;;;;;;;35.52;16.69;95144.63;5054333;28;20064;-53
2021/09/06 11:26:35;;;;;;;8.15;4.60;;;;;;;35.09;17.30;95139.50;5054113;28;20045;-55
2021/09/06 11:29:06;;;;;;;5.60;4.07;;;;;;;35.69;17.13;95142.66;5036990;28;20083;-60
2021/09/06 11:31:34;;;;;;;5.30;4.80;;;;;;;35.56;17.08;95141.81;5070535;28;20056;-55
2021/09/06 11:34:05;;;;;;;6.43;5.00;;;;;;;35.22;17.41;95140.34;5072197;28;20052;-53
2021/09/06 11:36:36;;;;;;;5.57;4.75;;;;;;;35.34;17.41;95133.47;5058118;28;20052;-56
2021/09/06 11:39:07;;;;;;;5.15;4.65;;;;;;;34.96;17.45;95129.75;5058239;28;20048;-52
2021/09/06 11:41:37;;;;;;;5.47;4.88;;;;;;;35.50;17.18;95141.59;5058415;28;20045;-52
2021/09/06 11:44:06;;;;;;;5.70;4.68;;;;;;;35.26;17.22;95151.13;5058091;28;20051;-53
2021/09/06 11:46:34;;;;;;;5.78;4.32;;;;;;;35.06;17.37;95136.88;5040770;28;20076;-56
2021/09/06 11:49:02;;;;;;;5.55;5.05;;;;;;;35.29;17.03;95130.47;5023522;28;20053;-55